CheckWX is a tool to help pilots better visualize weather data.  It is not intended as a substitute for an official pre-flight weather briefing.

09:51:34 UTC

KPUW TAF
Pullman / Moscow Regional Airport
Pullman/Moscow, Washington, USA
KPUW 200540Z 2006/2106 09006KT 2SM -SN BR BKN015 OVC025 FM201500 09006KT 1/2SM SN FG VV009 FM201900 30006KT 1SM -SN BR SCT005 OVC010 FM210200 30005KT 1SM -SHSN BR OVC005

Feb-20@
06:00 UTC

Feb-20 @ 06:00 UTC

Feb-20@
15:00 UTC

Feb-20 @ 15:00 UTC

KPUW 200540Z 2006/2106 09006KT 2SM -SN BR BKN015 OVC025
Wind
  • 090° at 6 KTS
Visibility
3,219 meters
Conditions
Light Snow, Mist
Cloud Levels
  • Broken at 1,500' AGL
  • Overcast at 2,500' AGL

Feb-20@
15:00 UTC

Feb-20 @ 15:00 UTC

Feb-20@
19:00 UTC

Feb-20 @ 19:00 UTC

FM201500 09006KT 1/2SM SN FG VV009

From

FromStandard forecast or significant change

Wind
  • 090° at 6 KTS
Visibility
805 meters
Conditions
Snow, Fog
Cloud Levels
  • Vertical visibility at 900' AGL

Feb-20@
19:00 UTC

Feb-20 @ 19:00 UTC

Feb-21@
02:00 UTC

Feb-21 @ 02:00 UTC

FM201900 30006KT 1SM -SN BR SCT005 OVC010

From

FromStandard forecast or significant change

Wind
  • 300° at 6 KTS
Visibility
1,609 meters
Conditions
Light Snow, Mist
Cloud Levels
  • Scattered at 500' AGL
  • Overcast at 1,000' AGL

Feb-21@
02:00 UTC

Feb-21 @ 02:00 UTC

Feb-21@
06:00 UTC

Feb-21 @ 06:00 UTC

FM210200 30005KT 1SM -SHSN BR OVC005

From

FromStandard forecast or significant change

Wind
  • 300° at 5 KTS
Visibility
1,609 meters
Conditions
Light Snow, Mist
Cloud Levels
  • Overcast at 500' AGL